sensor_id;sensor_type;location;lat;lon;timestamp;P1;durP1;ratioP1;P2;durP2;ratioP2
8986;SDS011;4529;51.360;12.474;2023-04-25T00:00:28;3.70;;;3.30;;
8986;SDS011;4529;51.360;12.474;2023-04-25T00:05:31;7.13;;;3.97;;
8986;SDS011;4529;51.360;12.474;2023-04-25T00:10:35;4.63;;;3.50;;
8986;SDS011;4529;51.360;12.474;2023-04-25T00:15:38;3.70;;;3.40;;
8986;SDS011;4529;51.360;12.474;2023-04-25T00:20:42;4.17;;;3.50;;
8986;SDS011;4529;51.360;12.474;2023-04-25T00:25:47;3.73;;;3.37;;
8986;SDS011;4529;51.360;12.474;2023-04-25T00:30:51;4.07;;;3.40;;
8986;SDS011;4529;51.360;12.474;2023-04-25T00:35:55;3.70;;;3.30;;
8986;SDS011;4529;51.360;12.474;2023-04-25T00:40:59;6.53;;;3.20;;
8986;SDS011;4529;51.360;12.474;2023-04-25T00:46:03;5.37;;;3.70;;
8986;SDS011;4529;51.360;12.474;2023-04-25T00:51:07;4.53;;;3.47;;
8986;SDS011;4529;51.360;12.474;2023-04-25T00:56:11;8.13;;;3.70;;
8986;SDS011;4529;51.360;12.474;2023-04-25T01:01:14;5.00;;;3.93;;
8986;SDS011;4529;51.360;12.474;2023-04-25T01:06:18;4.83;;;3.83;;
8986;SDS011;4529;51.360;12.474;2023-04-25T01:11:21;4.30;;;3.90;;
8986;SDS011;4529;51.360;12.474;2023-04-25T01:16:25;5.57;;;3.97;;
8986;SDS011;4529;51.360;12.474;2023-04-25T01:21:28;6.00;;;4.03;;
8986;SDS011;4529;51.360;12.474;2023-04-25T01:26:32;5.83;;;4.00;;
8986;SDS011;4529;51.360;12.474;2023-04-25T01:31:36;5.70;;;3.70;;
8986;SDS011;4529;51.360;12.474;2023-04-25T01:36:39;6.20;;;4.10;;
8986;SDS011;4529;51.360;12.474;2023-04-25T01:41:43;5.90;;;3.90;;
8986;SDS011;4529;51.360;12.474;2023-04-25T01:46:47;5.23;;;4.00;;
8986;SDS011;4529;51.360;12.474;2023-04-25T01:51:51;5.40;;;3.40;;
8986;SDS011;4529;51.360;12.474;2023-04-25T01:56:56;5.33;;;3.60;;
8986;SDS011;4529;51.360;12.474;2023-04-25T02:01:59;6.93;;;3.67;;
8986;SDS011;4529;51.360;12.474;2023-04-25T02:07:03;6.47;;;3.10;;
8986;SDS011;4529;51.360;12.474;2023-04-25T02:12:07;3.30;;;3.07;;
8986;SDS011;4529;51.360;12.474;2023-04-25T02:17:09;3.43;;;2.93;;
8986;SDS011;4529;51.360;12.474;2023-04-25T02:22:13;3.67;;;3.00;;
8986;SDS011;4529;51.360;12.474;2023-04-25T02:27:17;6.30;;;3.20;;
8986;SDS011;4529;51.360;12.474;2023-04-25T02:32:21;4.47;;;2.97;;
8986;SDS011;4529;51.360;12.474;2023-04-25T02:37:25;4.00;;;3.60;;
8986;SDS011;4529;51.360;12.474;2023-04-25T02:42:29;4.40;;;3.60;;
8986;SDS011;4529;51.360;12.474;2023-04-25T02:47:33;4.03;;;3.53;;
8986;SDS011;4529;51.360;12.474;2023-04-25T02:52:36;5.93;;;4.00;;
8986;SDS011;4529;51.360;12.474;2023-04-25T02:57:40;4.87;;;3.70;;
8986;SDS011;4529;51.360;12.474;2023-04-25T03:02:44;6.73;;;3.80;;
8986;SDS011;4529;51.360;12.474;2023-04-25T03:07:47;6.73;;;3.93;;
8986;SDS011;4529;51.360;12.474;2023-04-25T03:12:51;5.80;;;3.60;;
8986;SDS011;4529;51.360;12.474;2023-04-25T03:17:54;5.10;;;3.40;;
8986;SDS011;4529;51.360;12.474;2023-04-25T03:22:58;5.33;;;3.70;;
8986;SDS011;4529;51.360;12.474;2023-04-25T03:28:01;6.10;;;3.80;;
8986;SDS011;4529;51.360;12.474;2023-04-25T03:33:05;5.20;;;3.80;;
8986;SDS011;4529;51.360;12.474;2023-04-25T03:38:09;5.70;;;4.07;;
8986;SDS011;4529;51.360;12.474;2023-04-25T03:43:13;5.53;;;4.20;;
8986;SDS011;4529;51.360;12.474;2023-04-25T03:48:16;6.50;;;3.87;;
8986;SDS011;4529;51.360;12.474;2023-04-25T03:53:20;5.00;;;4.10;;
8986;SDS011;4529;51.360;12.474;2023-04-25T03:58:24;4.17;;;3.77;;
8986;SDS011;4529;51.360;12.474;2023-04-25T04:03:28;4.90;;;3.90;;
8986;SDS011;4529;51.360;12.474;2023-04-25T04:08:32;6.20;;;3.77;;
8986;SDS011;4529;51.360;12.474;2023-04-25T04:13:35;9.57;;;4.03;;
8986;SDS011;4529;51.360;12.474;2023-04-25T04:18:38;6.13;;;3.67;;
8986;SDS011;4529;51.360;12.474;2023-04-25T04:23:42;5.53;;;3.60;;
8986;SDS011;4529;51.360;12.474;2023-04-25T04:28:46;3.80;;;3.40;;
8986;SDS011;4529;51.360;12.474;2023-04-25T04:33:50;5.83;;;3.47;;
8986;SDS011;4529;51.360;12.474;2023-04-25T04:38:53;5.07;;;3.83;;
8986;SDS011;4529;51.360;12.474;2023-04-25T04:43:57;6.43;;;3.53;;
8986;SDS011;4529;51.360;12.474;2023-04-25T04:49:01;6.83;;;3.77;;
8986;SDS011;4529;51.360;12.474;2023-04-25T04:54:05;4.20;;;3.50;;
8986;SDS011;4529;51.360;12.474;2023-04-25T04:59:09;5.33;;;3.80;;
8986;SDS011;4529;51.360;12.474;2023-04-25T05:04:12;7.63;;;3.50;;
8986;SDS011;4529;51.360;12.474;2023-04-25T05:09:15;5.40;;;3.53;;
8986;SDS011;4529;51.360;12.474;2023-04-25T05:14:20;4.50;;;3.40;;
8986;SDS011;4529;51.360;12.474;2023-04-25T05:19:24;3.87;;;3.30;;
8986;SDS011;4529;51.360;12.474;2023-04-25T05:24:28;5.77;;;3.70;;
8986;SDS011;4529;51.360;12.474;2023-04-25T05:29:31;7.33;;;4.00;;
8986;SDS011;4529;51.360;12.474;2023-04-25T05:34:35;7.87;;;4.53;;
8986;SDS011;4529;51.360;12.474;2023-04-25T05:39:38;7.33;;;4.50;;
8986;SDS011;4529;51.360;12.474;2023-04-25T05:44:42;7.63;;;4.70;;
8986;SDS011;4529;51.360;12.474;2023-04-25T05:49:46;6.27;;;4.60;;
8986;SDS011;4529;51.360;12.474;2023-04-25T05:54:51;10.00;;;4.83;;
8986;SDS011;4529;51.360;12.474;2023-04-25T05:59:54;9.80;;;5.00;;
8986;SDS011;4529;51.360;12.474;2023-04-25T06:04:57;6.67;;;4.40;;
8986;SDS011;4529;51.360;12.474;2023-04-25T06:10:03;8.10;;;5.00;;
8986;SDS011;4529;51.360;12.474;2023-04-25T06:15:07;7.63;;;4.70;;
8986;SDS011;4529;51.360;12.474;2023-04-25T06:20:11;7.37;;;4.93;;
8986;SDS011;4529;51.360;12.474;2023-04-25T06:25:15;7.77;;;4.57;;
8986;SDS011;4529;51.360;12.474;2023-04-25T06:30:19;8.83;;;4.47;;
8986;SDS011;4529;51.360;12.474;2023-04-25T06:35:24;6.33;;;4.47;;
8986;SDS011;4529;51.360;12.474;2023-04-25T06:40:28;7.50;;;4.27;;
8986;SDS011;4529;51.360;12.474;2023-04-25T06:45:32;6.33;;;3.77;;
8986;SDS011;4529;51.360;12.474;2023-04-25T06:50:36;5.77;;;4.00;;
8986;SDS011;4529;51.360;12.474;2023-04-25T06:55:40;7.60;;;4.10;;
8986;SDS011;4529;51.360;12.474;2023-04-25T07:00:44;5.00;;;3.90;;
8986;SDS011;4529;51.360;12.474;2023-04-25T07:05:48;6.43;;;3.87;;
8986;SDS011;4529;51.360;12.474;2023-04-25T07:10:52;4.40;;;4.00;;
8986;SDS011;4529;51.360;12.474;2023-04-25T07:15:57;9.20;;;4.33;;
8986;SDS011;4529;51.360;12.474;2023-04-25T07:21:01;7.43;;;3.60;;
8986;SDS011;4529;51.360;12.474;2023-04-25T07:26:05;4.83;;;3.87;;
8986;SDS011;4529;51.360;12.474;2023-04-25T07:31:09;4.67;;;4.00;;
8986;SDS011;4529;51.360;12.474;2023-04-25T07:36:13;7.03;;;3.80;;
8986;SDS011;4529;51.360;12.474;2023-04-25T07:41:17;5.53;;;4.03;;
8986;SDS011;4529;51.360;12.474;2023-04-25T07:46:21;10.30;;;4.73;;
8986;SDS011;4529;51.360;12.474;2023-04-25T07:51:26;6.57;;;4.13;;
8986;SDS011;4529;51.360;12.474;2023-04-25T07:56:30;6.33;;;4.33;;
8986;SDS011;4529;51.360;12.474;2023-04-25T08:01:34;7.03;;;4.40;;
8986;SDS011;4529;51.360;12.474;2023-04-25T08:06:38;4.87;;;3.17;;
8986;SDS011;4529;51.360;12.474;2023-04-25T08:11:42;4.57;;;2.70;;
8986;SDS011;4529;51.360;12.474;2023-04-25T08:16:46;7.47;;;2.80;;
8986;SDS011;4529;51.360;12.474;2023-04-25T08:21:50;4.27;;;2.40;;
8986;SDS011;4529;51.360;12.474;2023-04-25T08:26:53;5.70;;;2.30;;
8986;SDS011;4529;51.360;12.474;2023-04-25T08:31:57;3.93;;;2.23;;
8986;SDS011;4529;51.360;12.474;2023-04-25T08:37:00;5.87;;;2.50;;
8986;SDS011;4529;51.360;12.474;2023-04-25T08:42:05;4.90;;;2.20;;
8986;SDS011;4529;51.360;12.474;2023-04-25T08:47:10;5.13;;;2.43;;
8986;SDS011;4529;51.360;12.474;2023-04-25T08:52:14;7.23;;;2.73;;
8986;SDS011;4529;51.360;12.474;2023-04-25T08:57:17;10.70;;;3.00;;
8986;SDS011;4529;51.360;12.474;2023-04-25T09:02:20;6.43;;;2.40;;
8986;SDS011;4529;51.360;12.474;2023-04-25T09:07:24;4.47;;;2.20;;
8986;SDS011;4529;51.360;12.474;2023-04-25T09:12:27;8.37;;;2.50;;
8986;SDS011;4529;51.360;12.474;2023-04-25T09:17:31;7.30;;;2.70;;
8986;SDS011;4529;51.360;12.474;2023-04-25T09:22:36;4.77;;;2.70;;
8986;SDS011;4529;51.360;12.474;2023-04-25T09:27:52;7.37;;;2.63;;
8986;SDS011;4529;51.360;12.474;2023-04-25T09:32:56;6.83;;;2.87;;
8986;SDS011;4529;51.360;12.474;2023-04-25T09:38:01;6.23;;;2.87;;
8986;SDS011;4529;51.360;12.474;2023-04-25T09:43:08;6.20;;;2.70;;
8986;SDS011;4529;51.360;12.474;2023-04-25T09:48:12;6.93;;;2.53;;
8986;SDS011;4529;51.360;12.474;2023-04-25T09:53:17;4.73;;;2.60;;
8986;SDS011;4529;51.360;12.474;2023-04-25T09:58:21;7.53;;;2.90;;
8986;SDS011;4529;51.360;12.474;2023-04-25T10:03:24;7.83;;;2.97;;
8986;SDS011;4529;51.360;12.474;2023-04-25T10:08:30;7.70;;;3.07;;
8986;SDS011;4529;51.360;12.474;2023-04-25T10:13:33;6.40;;;3.30;;
8986;SDS011;4529;51.360;12.474;2023-04-25T10:18:37;9.43;;;3.07;;
8986;SDS011;4529;51.360;12.474;2023-04-25T10:23:41;10.33;;;3.43;;
8986;SDS011;4529;51.360;12.474;2023-04-25T10:34:01;8.17;;;3.53;;
8986;SDS011;4529;51.360;12.474;2023-04-25T10:39:05;12.47;;;4.00;;
8986;SDS011;4529;51.360;12.474;2023-04-25T10:44:08;9.20;;;4.20;;
8986;SDS011;4529;51.360;12.474;2023-04-25T10:54:07;11.03;;;3.93;;
8986;SDS011;4529;51.360;12.474;2023-04-25T10:59:10;9.50;;;4.10;;
8986;SDS011;4529;51.360;12.474;2023-04-25T11:04:20;11.80;;;4.07;;
8986;SDS011;4529;51.360;12.474;2023-04-25T11:09:25;9.13;;;3.80;;
8986;SDS011;4529;51.360;12.474;2023-04-25T11:14:29;7.40;;;3.70;;
8986;SDS011;4529;51.360;12.474;2023-04-25T11:19:33;6.57;;;3.40;;
8986;SDS011;4529;51.360;12.474;2023-04-25T11:24:37;6.97;;;3.97;;
8986;SDS011;4529;51.360;12.474;2023-04-25T11:29:40;11.77;;;3.90;;
8986;SDS011;4529;51.360;12.474;2023-04-25T11:34:44;7.53;;;3.77;;
8986;SDS011;4529;51.360;12.474;2023-04-25T11:39:48;12.83;;;3.70;;
8986;SDS011;4529;51.360;12.474;2023-04-25T11:44:52;11.50;;;3.80;;
8986;SDS011;4529;51.360;12.474;2023-04-25T11:49:57;10.97;;;3.67;;
8986;SDS011;4529;51.360;12.474;2023-04-25T11:55:03;10.07;;;3.80;;
8986;SDS011;4529;51.360;12.474;2023-04-25T12:05:21;6.43;;;3.07;;
8986;SDS011;4529;51.360;12.474;2023-04-25T12:10:24;7.43;;;2.87;;
8986;SDS011;4529;51.360;12.474;2023-04-25T12:15:27;9.80;;;2.77;;
8986;SDS011;4529;51.360;12.474;2023-04-25T12:20:32;4.90;;;2.53;;
8986;SDS011;4529;51.360;12.474;2023-04-25T12:25:37;5.57;;;2.53;;
8986;SDS011;4529;51.360;12.474;2023-04-25T12:30:54;5.77;;;2.50;;
8986;SDS011;4529;51.360;12.474;2023-04-25T12:35:58;4.17;;;2.40;;
8986;SDS011;4529;51.360;12.474;2023-04-25T12:41:01;5.00;;;2.40;;
8986;SDS011;4529;51.360;12.474;2023-04-25T12:46:04;7.03;;;2.70;;
8986;SDS011;4529;51.360;12.474;2023-04-25T12:51:08;5.07;;;2.63;;
8986;SDS011;4529;51.360;12.474;2023-04-25T12:56:12;5.73;;;2.40;;
8986;SDS011;4529;51.360;12.474;2023-04-25T13:01:17;7.90;;;2.47;;
8986;SDS011;4529;51.360;12.474;2023-04-25T13:06:21;5.13;;;2.17;;
8986;SDS011;4529;51.360;12.474;2023-04-25T13:11:25;5.07;;;1.80;;
8986;SDS011;4529;51.360;12.474;2023-04-25T13:16:29;4.50;;;1.60;;
8986;SDS011;4529;51.360;12.474;2023-04-25T13:21:33;3.97;;;1.77;;
8986;SDS011;4529;51.360;12.474;2023-04-25T13:26:37;5.00;;;1.77;;
8986;SDS011;4529;51.360;12.474;2023-04-25T13:31:41;2.17;;;1.70;;
8986;SDS011;4529;51.360;12.474;2023-04-25T13:36:45;5.47;;;2.10;;
8986;SDS011;4529;51.360;12.474;2023-04-25T13:41:50;3.83;;;1.70;;
8986;SDS011;4529;51.360;12.474;2023-04-25T13:46:54;6.90;;;2.00;;
8986;SDS011;4529;51.360;12.474;2023-04-25T13:51:58;3.80;;;1.90;;
8986;SDS011;4529;51.360;12.474;2023-04-25T13:57:02;3.37;;;1.87;;
8986;SDS011;4529;51.360;12.474;2023-04-25T14:02:06;5.37;;;2.10;;
8986;SDS011;4529;51.360;12.474;2023-04-25T14:07:10;3.17;;;2.07;;
8986;SDS011;4529;51.360;12.474;2023-04-25T14:12:15;3.77;;;1.87;;
8986;SDS011;4529;51.360;12.474;2023-04-25T14:17:21;3.33;;;1.70;;
8986;SDS011;4529;51.360;12.474;2023-04-25T14:22:25;3.10;;;1.87;;
8986;SDS011;4529;51.360;12.474;2023-04-25T14:27:28;2.43;;;1.70;;
8986;SDS011;4529;51.360;12.474;2023-04-25T14:32:33;3.37;;;1.73;;
8986;SDS011;4529;51.360;12.474;2023-04-25T14:37:36;6.63;;;2.13;;
8986;SDS011;4529;51.360;12.474;2023-04-25T14:42:40;4.87;;;2.07;;
8986;SDS011;4529;51.360;12.474;2023-04-25T14:47:43;5.50;;;2.10;;
8986;SDS011;4529;51.360;12.474;2023-04-25T14:52:46;4.10;;;1.83;;
8986;SDS011;4529;51.360;12.474;2023-04-25T14:57:50;3.60;;;2.00;;
8986;SDS011;4529;51.360;12.474;2023-04-25T15:02:55;3.03;;;1.77;;
8986;SDS011;4529;51.360;12.474;2023-04-25T15:07:57;3.37;;;1.73;;
8986;SDS011;4529;51.360;12.474;2023-04-25T15:13:00;7.20;;;2.07;;
8986;SDS011;4529;51.360;12.474;2023-04-25T15:18:04;5.67;;;2.20;;
8986;SDS011;4529;51.360;12.474;2023-04-25T15:23:09;4.47;;;2.00;;
8986;SDS011;4529;51.360;12.474;2023-04-25T15:28:13;5.27;;;2.00;;
8986;SDS011;4529;51.360;12.474;2023-04-25T15:33:17;5.17;;;2.00;;
8986;SDS011;4529;51.360;12.474;2023-04-25T15:38:21;3.10;;;2.03;;
8986;SDS011;4529;51.360;12.474;2023-04-25T15:43:25;4.03;;;2.00;;
8986;SDS011;4529;51.360;12.474;2023-04-25T15:48:29;4.07;;;1.80;;
8986;SDS011;4529;51.360;12.474;2023-04-25T15:53:33;4.57;;;2.13;;
8986;SDS011;4529;51.360;12.474;2023-04-25T15:58:37;3.23;;;1.80;;
8986;SDS011;4529;51.360;12.474;2023-04-25T16:03:42;2.47;;;1.60;;
8986;SDS011;4529;51.360;12.474;2023-04-25T16:08:45;3.00;;;1.77;;
8986;SDS011;4529;51.360;12.474;2023-04-25T16:13:48;3.33;;;1.93;;
8986;SDS011;4529;51.360;12.474;2023-04-25T16:18:52;3.17;;;1.77;;
8986;SDS011;4529;51.360;12.474;2023-04-25T16:23:55;2.93;;;1.60;;
8986;SDS011;4529;51.360;12.474;2023-04-25T16:29:03;5.97;;;1.50;;
8986;SDS011;4529;51.360;12.474;2023-04-25T16:34:07;4.33;;;1.90;;
8986;SDS011;4529;51.360;12.474;2023-04-25T16:39:11;2.43;;;1.70;;
8986;SDS011;4529;51.360;12.474;2023-04-25T16:44:15;4.33;;;1.90;;
8986;SDS011;4529;51.360;12.474;2023-04-25T16:49:20;3.63;;;2.00;;
8986;SDS011;4529;51.360;12.474;2023-04-25T16:54:24;3.57;;;1.87;;
8986;SDS011;4529;51.360;12.474;2023-04-25T16:59:28;5.63;;;1.90;;
8986;SDS011;4529;51.360;12.474;2023-04-25T17:04:32;3.37;;;1.90;;
8986;SDS011;4529;51.360;12.474;2023-04-25T17:09:36;5.37;;;1.57;;
8986;SDS011;4529;51.360;12.474;2023-04-25T17:14:39;3.93;;;1.70;;
8986;SDS011;4529;51.360;12.474;2023-04-25T17:19:43;2.33;;;1.70;;
8986;SDS011;4529;51.360;12.474;2023-04-25T17:24:46;2.83;;;1.33;;
8986;SDS011;4529;51.360;12.474;2023-04-25T17:29:50;2.33;;;1.70;;
8986;SDS011;4529;51.360;12.474;2023-04-25T17:34:53;2.00;;;1.67;;
8986;SDS011;4529;51.360;12.474;2023-04-25T17:39:57;3.00;;;1.40;;
8986;SDS011;4529;51.360;12.474;2023-04-25T17:45:00;3.23;;;1.80;;
8986;SDS011;4529;51.360;12.474;2023-04-25T17:50:05;2.20;;;1.40;;
8986;SDS011;4529;51.360;12.474;2023-04-25T17:55:08;3.73;;;1.60;;
8986;SDS011;4529;51.360;12.474;2023-04-25T18:00:12;2.73;;;1.50;;
8986;SDS011;4529;51.360;12.474;2023-04-25T18:05:16;1.70;;;1.40;;
8986;SDS011;4529;51.360;12.474;2023-04-25T18:10:19;2.40;;;1.60;;
8986;SDS011;4529;51.360;12.474;2023-04-25T18:15:23;2.73;;;1.50;;
8986;SDS011;4529;51.360;12.474;2023-04-25T18:20:26;3.90;;;1.80;;
8986;SDS011;4529;51.360;12.474;2023-04-25T18:25:30;5.13;;;2.23;;
8986;SDS011;4529;51.360;12.474;2023-04-25T18:30:33;2.60;;;1.40;;
8986;SDS011;4529;51.360;12.474;2023-04-25T18:35:37;2.50;;;1.43;;
8986;SDS011;4529;51.360;12.474;2023-04-25T18:40:40;1.63;;;1.23;;
8986;SDS011;4529;51.360;12.474;2023-04-25T18:45:44;4.13;;;1.40;;
8986;SDS011;4529;51.360;12.474;2023-04-25T18:50:48;2.30;;;1.70;;
8986;SDS011;4529;51.360;12.474;2023-04-25T18:55:52;3.40;;;1.53;;
8986;SDS011;4529;51.360;12.474;2023-04-25T19:00:55;3.47;;;1.40;;
8986;SDS011;4529;51.360;12.474;2023-04-25T19:05:59;3.00;;;1.60;;
8986;SDS011;4529;51.360;12.474;2023-04-25T19:11:03;3.37;;;1.47;;
8986;SDS011;4529;51.360;12.474;2023-04-25T19:16:06;2.03;;;1.50;;
8986;SDS011;4529;51.360;12.474;2023-04-25T19:21:11;2.53;;;1.40;;
8986;SDS011;4529;51.360;12.474;2023-04-25T19:26:15;3.23;;;1.50;;
8986;SDS011;4529;51.360;12.474;2023-04-25T19:31:19;1.73;;;1.33;;
8986;SDS011;4529;51.360;12.474;2023-04-25T19:36:24;1.53;;;1.10;;
8986;SDS011;4529;51.360;12.474;2023-04-25T19:41:27;2.80;;;1.50;;
8986;SDS011;4529;51.360;12.474;2023-04-25T19:46:34;2.87;;;1.50;;
8986;SDS011;4529;51.360;12.474;2023-04-25T19:51:36;2.17;;;1.30;;
8986;SDS011;4529;51.360;12.474;2023-04-25T19:56:40;3.40;;;1.73;;
8986;SDS011;4529;51.360;12.474;2023-04-25T20:01:43;2.50;;;1.43;;
8986;SDS011;4529;51.360;12.474;2023-04-25T20:06:48;1.77;;;1.40;;
8986;SDS011;4529;51.360;12.474;2023-04-25T20:11:52;3.70;;;1.90;;
8986;SDS011;4529;51.360;12.474;2023-04-25T20:16:55;3.13;;;2.00;;
8986;SDS011;4529;51.360;12.474;2023-04-25T20:21:59;1.93;;;1.60;;
8986;SDS011;4529;51.360;12.474;2023-04-25T20:27:02;2.50;;;1.80;;
8986;SDS011;4529;51.360;12.474;2023-04-25T20:32:06;1.83;;;1.63;;
8986;SDS011;4529;51.360;12.474;2023-04-25T20:37:10;1.50;;;1.40;;
8986;SDS011;4529;51.360;12.474;2023-04-25T20:42:15;2.13;;;1.40;;
8986;SDS011;4529;51.360;12.474;2023-04-25T20:47:19;1.57;;;1.47;;
8986;SDS011;4529;51.360;12.474;2023-04-25T20:52:22;2.90;;;1.50;;
8986;SDS011;4529;51.360;12.474;2023-04-25T20:57:26;2.07;;;1.40;;
8986;SDS011;4529;51.360;12.474;2023-04-25T21:02:30;6.90;;;1.67;;
8986;SDS011;4529;51.360;12.474;2023-04-25T21:07:34;3.07;;;1.73;;
8986;SDS011;4529;51.360;12.474;2023-04-25T21:12:37;5.67;;;1.67;;
8986;SDS011;4529;51.360;12.474;2023-04-25T21:17:41;2.00;;;1.70;;
8986;SDS011;4529;51.360;12.474;2023-04-25T21:22:45;1.97;;;1.60;;
8986;SDS011;4529;51.360;12.474;2023-04-25T21:27:49;3.47;;;1.70;;
8986;SDS011;4529;51.360;12.474;2023-04-25T21:32:53;1.70;;;1.53;;
8986;SDS011;4529;51.360;12.474;2023-04-25T21:37:56;2.03;;;1.40;;
8986;SDS011;4529;51.360;12.474;2023-04-25T21:43:00;3.90;;;1.70;;
8986;SDS011;4529;51.360;12.474;2023-04-25T21:48:03;2.30;;;1.63;;
8986;SDS011;4529;51.360;12.474;2023-04-25T21:53:07;3.47;;;1.80;;
8986;SDS011;4529;51.360;12.474;2023-04-25T21:58:12;6.30;;;1.70;;
8986;SDS011;4529;51.360;12.474;2023-04-25T22:03:16;3.60;;;1.90;;
8986;SDS011;4529;51.360;12.474;2023-04-25T22:08:20;3.83;;;2.00;;
8986;SDS011;4529;51.360;12.474;2023-04-25T22:13:23;2.77;;;1.83;;
8986;SDS011;4529;51.360;12.474;2023-04-25T22:18:27;2.37;;;1.90;;
8986;SDS011;4529;51.360;12.474;2023-04-25T22:23:30;4.33;;;1.77;;
8986;SDS011;4529;51.360;12.474;2023-04-25T22:28:34;2.07;;;1.80;;
8986;SDS011;4529;51.360;12.474;2023-04-25T22:33:38;3.27;;;1.77;;
8986;SDS011;4529;51.360;12.474;2023-04-25T22:38:42;3.10;;;2.00;;
8986;SDS011;4529;51.360;12.474;2023-04-25T22:43:47;3.10;;;2.00;;
8986;SDS011;4529;51.360;12.474;2023-04-25T22:48:51;3.63;;;1.90;;
8986;SDS011;4529;51.360;12.474;2023-04-25T22:53:55;1.90;;;1.80;;
8986;SDS011;4529;51.360;12.474;2023-04-25T22:58:58;4.93;;;2.00;;
8986;SDS011;4529;51.360;12.474;2023-04-25T23:04:02;4.07;;;1.77;;
8986;SDS011;4529;51.360;12.474;2023-04-25T23:09:05;2.53;;;1.73;;
8986;SDS011;4529;51.360;12.474;2023-04-25T23:14:09;2.93;;;2.17;;
8986;SDS011;4529;51.360;12.474;2023-04-25T23:19:12;5.43;;;2.10;;
8986;SDS011;4529;51.360;12.474;2023-04-25T23:24:16;5.43;;;2.10;;
8986;SDS011;4529;51.360;12.474;2023-04-25T23:29:20;4.27;;;2.47;;
8986;SDS011;4529;51.360;12.474;2023-04-25T23:34:25;4.17;;;1.90;;
8986;SDS011;4529;51.360;12.474;2023-04-25T23:39:30;2.20;;;2.00;;
8986;SDS011;4529;51.360;12.474;2023-04-25T23:44:35;3.23;;;1.97;;
8986;SDS011;4529;51.360;12.474;2023-04-25T23:49:38;2.20;;;1.80;;
8986;SDS011;4529;51.360;12.474;2023-04-25T23:54:42;4.93;;;1.90;;
8986;SDS011;4529;51.360;12.474;2023-04-25T23:59:45;4.40;;;2.00;;
